French Island, Wisconsin
Current Conditions -  °F | °C
As of 11:53 PM on Wednesday 22 Oct 2014 (Local Time) from KLSE Reporting Station
Broken Clouds Broken Clouds  
Wind Chill: 53°   Ceiling: 11000
Heat Index: 53°   Visibility: 10mi
Dew Point: 37°   Wind: 6mph
Humidity: 55%   Direction: 170°S
Pressure: 30.13"   Gusts: NA
Location:  43.8°N, 91.145°W
Report Text: KLSE 230453Z AUTO 17005KT 10SM FEW040 BKN110 12/03 A3013 RMK AO2 LTG DSNT N SLP206 T01170028
Loading
Personal Weather Stations






























Interactive Weather Map
Tropical Storm Tracking
New forecast layout! Learn more

10-Day Weather Forecast

Advertisements
Track Severe Weather on mobile